createdAt,value
2023-03-29T00:13:32.463Z,4.48
2023-03-29T00:33:32.424Z,4.5
2023-03-29T00:53:32.400Z,4.4
2023-03-29T01:13:32.390Z,4.46
2023-03-29T01:33:32.348Z,4.48
2023-03-29T01:53:32.320Z,4.4
2023-03-29T02:13:32.283Z,4.65
2023-03-29T02:33:32.258Z,4.81
2023-03-29T02:53:32.229Z,5.2
2023-03-29T03:13:32.206Z,5.41
2023-03-29T03:33:32.160Z,5.48
2023-03-29T04:13:32.108Z,6.04
2023-03-29T04:53:32.062Z,5.81
2023-03-29T05:33:32.000Z,5.89
2023-03-29T05:53:31.964Z,6.13
2023-03-29T06:13:31.946Z,6.14
2023-03-29T06:33:31.914Z,6.38
2023-03-29T06:53:31.865Z,6.72
2023-03-29T07:13:31.837Z,7.17
2023-03-29T07:33:31.915Z,7.62
2023-03-29T07:53:31.768Z,8.07
2023-03-29T09:13:31.662Z,9.38
2023-03-29T10:13:31.536Z,9.02
2023-03-29T10:53:31.457Z,10.43
2023-03-29T11:13:31.441Z,10.71
2023-03-29T11:33:31.396Z,11.01
2023-03-29T11:53:31.361Z,12.3
2023-03-29T12:13:31.314Z,12.97
2023-03-29T12:33:31.281Z,13.72
2023-03-29T12:53:31.247Z,13.92
2023-03-29T13:13:31.220Z,13.86
2023-03-29T13:33:31.150Z,13.44
2023-03-29T14:13:31.085Z,14
2023-03-29T14:53:31.012Z,14.57
2023-03-29T15:33:30.997Z,14.62
2023-03-29T15:53:30.898Z,14.64
2023-03-29T17:13:30.743Z,14.57
2023-03-29T17:33:30.694Z,14.57
2023-03-29T17:53:30.668Z,14.63
2023-03-29T18:13:30.620Z,14.69
2023-03-29T18:33:30.589Z,14.62
2023-03-29T19:13:30.541Z,14.52
2023-03-29T19:33:30.476Z,14.52
2023-03-29T19:53:30.483Z,14.42
2023-03-29T20:13:37.994Z,14.21
2023-03-29T20:33:30.345Z,13.97
2023-03-29T20:53:30.438Z,13.67
2023-03-29T21:13:30.282Z,13.54
2023-03-29T21:53:30.197Z,13.41
2023-03-29T22:53:30.085Z,13.43
